CYHI

Ulukhaktok Holman Airport

Ulukhaktok, Northwest Territories, Canada
METAR CYHI 221900Z 28011G17KT 0SM FG OVC002 04/04 A3020 RMK ST8 4.2/3.4/R0.0/CIG RAG AFT 19 UTC/LST OBS/NXT 231400Z SLP230
Observed Flight Rules
Jul-22 @ 19:00 UTC (18 hours ago) Instrument Flight Rules
Wind Visibility Clouds Conditions
280° at 11 knots
 Gusting to 17 knots
miles
  • Overcast at 200' AGL
  • Fog
Temperatures Readings
Current 4°C / 39°F
Dewpoint 4°C / 39°F
Humidity 100%
Altimeter 30.2" Hg
Pressure 1023 hPa
Elevation 36
METAR CYHI 221900Z 28011G17KT 0SM FG OVC002 04/04 A3020 RMK ST8 4.2/3.4/R0.0/CIG RAG AFT 19 UTC/LST OBS/NXT 231400Z SLP230
Observed Flight Rules
Jul-22 @ 19:00 UTC
(18 hours ago)
LIFR
Wind Visibility
280° at 11 knots
 Gusting to 17 knots
miles
Clouds
  • Overcast at 200' AGL
Conditions
  • Fog
Temperature Dewpoint
4°C / 39°F 4°C / 39°F
Humidity Altimeter Pressure
100% 30.2" Hg 1023 hPa